Wiarton Airport
CYVV : now visible

Airfield :











YOU CAN JOIN US ON...

 
LOGIN :

Register | Disclaimer

   EN    FR    IT 

 









Legend :    VFR   Marginal VFR   IFR   Intensive IFR   Very Intensive IFR
Visi :
Ceiling :
>= 8 km
>= 3000ft
5 to 8 km
1000 to 3000 ft
1500m to 5 km
500 to 1000 ft
800 to 1500m
200 to 500 ft
< 800m
< 200 ft
Symbols :   Thunderstorms  Fog  Heavy snow  Heavy precipitations  Wind > 20 kt






- Airport Elevation : 729 ft
- IATA code : YVV


CYVV - Wiarton

CURRENT METAR :
  • 141700Z 24008KT 6SM -SN DRSN OVC025 M01/M03 A3006 RMK SC8 SLP193

EXPIRED METARs :
  • 141623Z 24008KT 2SM -SHSN DRSN OVC025 M01/M03 A3007 RMK SN2SC6 CVCTV CLD EMBD VIS VRB 1-3 SLP195

TAF TAF CYVV
Valid from the 14 at 14:00 until the 15 at 00:00 UTC


141339Z 1414/1424 19010KT P6SM -SHSN OVC025
TEMPO 1414/1424 11/2SM -SHSN OVC015
BECMG 1416/1418 24012G22KT RMK NXT FCST BY 142000Z



MET'MAP, your aeronautical weather chart ! - Copyright ORBIFLY December 2007 - Disclaimer

ORBIFLY MET'MAP TEAM :

Programming & Development : Alexandra Zaïnal
Concept & Development : Baudouin d'Aumeries
Co-Development & Prog : Marc-Olivier Méhu
Technical & hardware support : Manuel Goepfert

Contact : metmap@orbifly.com




SOURCES & CREDITS :

   NOAA       Earth
Advisory